sensor_id;sensor_type;location;lat;lon;timestamp;temperature;humidity
69084;SHT31;56185;48.526;9.044;2022-07-06T00:01:55;16.98;66.66
69084;SHT31;56185;48.526;9.044;2022-07-06T00:04:20;16.91;66.96
69084;SHT31;56185;48.526;9.044;2022-07-06T00:06:46;16.78;67.53
69084;SHT31;56185;48.526;9.044;2022-07-06T00:09:11;16.75;66.81
69084;SHT31;56185;48.526;9.044;2022-07-06T00:11:36;16.67;67.85
69084;SHT31;56185;48.526;9.044;2022-07-06T00:14:02;16.63;67.86
69084;SHT31;56185;48.526;9.044;2022-07-06T00:16:28;16.53;67.98
69084;SHT31;56185;48.526;9.044;2022-07-06T00:18:53;16.51;68.48
69084;SHT31;56185;48.526;9.044;2022-07-06T00:21:19;16.54;68.66
69084;SHT31;56185;48.526;9.044;2022-07-06T00:23:44;16.49;68.69
69084;SHT31;56185;48.526;9.044;2022-07-06T00:26:09;16.46;69.18
69084;SHT31;56185;48.526;9.044;2022-07-06T00:28:35;16.34;69.27
69084;SHT31;56185;48.526;9.044;2022-07-06T00:31:00;16.36;69.80
69084;SHT31;56185;48.526;9.044;2022-07-06T00:33:25;16.43;69.53
69084;SHT31;56185;48.526;9.044;2022-07-06T00:35:51;16.40;69.38
69084;SHT31;56185;48.526;9.044;2022-07-06T00:38:18;16.36;69.56
69084;SHT31;56185;48.526;9.044;2022-07-06T00:40:43;16.40;69.56
69084;SHT31;56185;48.526;9.044;2022-07-06T00:43:08;16.37;69.55
69084;SHT31;56185;48.526;9.044;2022-07-06T00:45:33;16.27;70.12
69084;SHT31;56185;48.526;9.044;2022-07-06T00:47:59;16.23;70.24
69084;SHT31;56185;48.526;9.044;2022-07-06T00:50:24;16.34;69.59
69084;SHT31;56185;48.526;9.044;2022-07-06T00:55:18;16.37;69.94
69084;SHT31;56185;48.526;9.044;2022-07-06T00:57:44;16.36;70.25
69084;SHT31;56185;48.526;9.044;2022-07-06T01:00:12;16.40;69.70
69084;SHT31;56185;48.526;9.044;2022-07-06T01:02:38;16.44;69.57
69084;SHT31;56185;48.526;9.044;2022-07-06T01:05:04;16.50;69.28
69084;SHT31;56185;48.526;9.044;2022-07-06T01:07:30;16.46;69.64
69084;SHT31;56185;48.526;9.044;2022-07-06T01:09:55;16.39;70.11
69084;SHT31;56185;48.526;9.044;2022-07-06T01:12:21;16.33;70.19
69084;SHT31;56185;48.526;9.044;2022-07-06T01:14:47;16.20;70.59
69084;SHT31;56185;48.526;9.044;2022-07-06T01:17:13;16.14;70.53
69084;SHT31;56185;48.526;9.044;2022-07-06T01:19:39;16.14;70.89
69084;SHT31;56185;48.526;9.044;2022-07-06T01:22:04;16.10;70.10
69084;SHT31;56185;48.526;9.044;2022-07-06T01:24:29;16.12;70.57
69084;SHT31;56185;48.526;9.044;2022-07-06T01:26:57;16.09;70.92
69084;SHT31;56185;48.526;9.044;2022-07-06T01:29:22;15.99;71.04
69084;SHT31;56185;48.526;9.044;2022-07-06T01:31:49;15.91;71.78
69084;SHT31;56185;48.526;9.044;2022-07-06T01:34:18;15.92;71.30
69084;SHT31;56185;48.526;9.044;2022-07-06T01:36:44;15.98;70.66
69084;SHT31;56185;48.526;9.044;2022-07-06T01:39:09;15.96;70.98
69084;SHT31;56185;48.526;9.044;2022-07-06T01:41:35;15.85;71.57
69084;SHT31;56185;48.526;9.044;2022-07-06T01:44:01;15.91;71.34
69084;SHT31;56185;48.526;9.044;2022-07-06T01:46:26;16.08;70.82
69084;SHT31;56185;48.526;9.044;2022-07-06T01:48:52;15.82;71.15
69084;SHT31;56185;48.526;9.044;2022-07-06T01:51:17;15.82;71.71
69084;SHT31;56185;48.526;9.044;2022-07-06T01:53:42;15.82;71.55
69084;SHT31;56185;48.526;9.044;2022-07-06T01:56:09;15.91;71.44
69084;SHT31;56185;48.526;9.044;2022-07-06T01:58:34;15.98;71.22
69084;SHT31;56185;48.526;9.044;2022-07-06T02:01:00;15.95;71.47
69084;SHT31;56185;48.526;9.044;2022-07-06T02:03:25;15.78;71.50
69084;SHT31;56185;48.526;9.044;2022-07-06T02:05:51;15.74;71.34
69084;SHT31;56185;48.526;9.044;2022-07-06T02:08:16;15.75;71.50
69084;SHT31;56185;48.526;9.044;2022-07-06T02:10:42;15.88;71.28
69084;SHT31;56185;48.526;9.044;2022-07-06T02:13:07;15.68;72.25
69084;SHT31;56185;48.526;9.044;2022-07-06T02:15:32;15.77;71.67
69084;SHT31;56185;48.526;9.044;2022-07-06T02:17:58;15.72;72.22
69084;SHT31;56185;48.526;9.044;2022-07-06T02:20:23;15.65;71.70
69084;SHT31;56185;48.526;9.044;2022-07-06T02:22:48;15.50;72.78
69084;SHT31;56185;48.526;9.044;2022-07-06T02:25:14;15.50;72.31
69084;SHT31;56185;48.526;9.044;2022-07-06T02:27:39;15.50;72.28
69084;SHT31;56185;48.526;9.044;2022-07-06T02:30:05;15.51;71.96
69084;SHT31;56185;48.526;9.044;2022-07-06T02:32:31;15.43;72.64
69084;SHT31;56185;48.526;9.044;2022-07-06T02:34:56;15.37;72.90
69084;SHT31;56185;48.526;9.044;2022-07-06T02:37:21;15.22;73.22
69084;SHT31;56185;48.526;9.044;2022-07-06T02:39:46;15.34;72.61
69084;SHT31;56185;48.526;9.044;2022-07-06T02:42:12;15.26;73.06
69084;SHT31;56185;48.526;9.044;2022-07-06T02:44:37;15.13;73.87
69084;SHT31;56185;48.526;9.044;2022-07-06T02:47:02;15.11;73.77
69084;SHT31;56185;48.526;9.044;2022-07-06T02:49:28;15.11;73.85
69084;SHT31;56185;48.526;9.044;2022-07-06T02:51:53;15.13;74.23
69084;SHT31;56185;48.526;9.044;2022-07-06T02:54:18;15.26;73.19
69084;SHT31;56185;48.526;9.044;2022-07-06T02:56:43;15.17;73.56
69084;SHT31;56185;48.526;9.044;2022-07-06T02:59:09;15.23;72.80
69084;SHT31;56185;48.526;9.044;2022-07-06T03:01:34;15.14;73.22
69084;SHT31;56185;48.526;9.044;2022-07-06T03:03:59;15.13;73.37
69084;SHT31;56185;48.526;9.044;2022-07-06T03:06:24;15.03;73.57
69084;SHT31;56185;48.526;9.044;2022-07-06T03:08:50;15.11;73.61
69084;SHT31;56185;48.526;9.044;2022-07-06T03:11:15;14.90;74.47
69084;SHT31;56185;48.526;9.044;2022-07-06T03:13:40;15.02;74.35
69084;SHT31;56185;48.526;9.044;2022-07-06T03:16:06;14.92;74.68
69084;SHT31;56185;48.526;9.044;2022-07-06T03:18:31;14.77;75.13
69084;SHT31;56185;48.526;9.044;2022-07-06T03:20:56;14.80;74.98
69084;SHT31;56185;48.526;9.044;2022-07-06T03:23:21;14.87;74.93
69084;SHT31;56185;48.526;9.044;2022-07-06T03:25:47;14.87;74.46
69084;SHT31;56185;48.526;9.044;2022-07-06T03:28:12;15.08;73.60
69084;SHT31;56185;48.526;9.044;2022-07-06T03:30:37;14.97;74.21
69084;SHT31;56185;48.526;9.044;2022-07-06T03:33:03;14.85;74.31
69084;SHT31;56185;48.526;9.044;2022-07-06T03:35:28;14.80;74.89
69084;SHT31;56185;48.526;9.044;2022-07-06T03:37:53;14.75;75.14
69084;SHT31;56185;48.526;9.044;2022-07-06T03:40:18;14.63;75.48
69084;SHT31;56185;48.526;9.044;2022-07-06T03:42:44;14.85;74.45
69084;SHT31;56185;48.526;9.044;2022-07-06T03:45:09;14.69;75.46
69084;SHT31;56185;48.526;9.044;2022-07-06T03:47:35;14.71;75.48
69084;SHT31;56185;48.526;9.044;2022-07-06T03:50:00;14.72;75.45
69084;SHT31;56185;48.526;9.044;2022-07-06T03:52:25;14.66;75.43
69084;SHT31;56185;48.526;9.044;2022-07-06T03:54:51;14.69;75.24
69084;SHT31;56185;48.526;9.044;2022-07-06T03:57:16;14.69;75.58
69084;SHT31;56185;48.526;9.044;2022-07-06T03:59:41;14.76;74.86
69084;SHT31;56185;48.526;9.044;2022-07-06T04:02:07;14.66;75.51
69084;SHT31;56185;48.526;9.044;2022-07-06T04:04:33;14.61;75.54
69084;SHT31;56185;48.526;9.044;2022-07-06T04:06:58;14.65;75.36
69084;SHT31;56185;48.526;9.044;2022-07-06T04:09:24;14.75;74.91
69084;SHT31;56185;48.526;9.044;2022-07-06T04:11:49;14.79;75.77
69084;SHT31;56185;48.526;9.044;2022-07-06T04:14:14;14.92;75.19
69084;SHT31;56185;48.526;9.044;2022-07-06T04:16:39;14.89;74.56
69084;SHT31;56185;48.526;9.044;2022-07-06T04:19:05;14.80;74.16
69084;SHT31;56185;48.526;9.044;2022-07-06T04:21:30;14.76;74.72
69084;SHT31;56185;48.526;9.044;2022-07-06T04:23:55;14.69;75.42
69084;SHT31;56185;48.526;9.044;2022-07-06T04:26:21;14.71;75.26
69084;SHT31;56185;48.526;9.044;2022-07-06T04:28:46;14.77;75.47
69084;SHT31;56185;48.526;9.044;2022-07-06T04:31:11;14.83;75.04
69084;SHT31;56185;48.526;9.044;2022-07-06T04:33:37;14.79;75.40
69084;SHT31;56185;48.526;9.044;2022-07-06T04:36:02;15.02;74.68
69084;SHT31;56185;48.526;9.044;2022-07-06T04:38:27;15.11;72.67
69084;SHT31;56185;48.526;9.044;2022-07-06T04:40:53;15.11;72.30
69084;SHT31;56185;48.526;9.044;2022-07-06T04:43:18;15.14;73.09
69084;SHT31;56185;48.526;9.044;2022-07-06T04:45:43;15.19;73.59
69084;SHT31;56185;48.526;9.044;2022-07-06T04:48:08;15.26;73.40
69084;SHT31;56185;48.526;9.044;2022-07-06T04:50:34;15.34;72.09
69084;SHT31;56185;48.526;9.044;2022-07-06T04:52:59;15.47;72.24
69084;SHT31;56185;48.526;9.044;2022-07-06T04:55:25;15.48;71.40
69084;SHT31;56185;48.526;9.044;2022-07-06T04:57:50;15.48;70.89
69084;SHT31;56185;48.526;9.044;2022-07-06T05:00:15;15.55;70.21
69084;SHT31;56185;48.526;9.044;2022-07-06T05:02:41;15.64;70.06
69084;SHT31;56185;48.526;9.044;2022-07-06T05:05:06;15.66;70.50
69084;SHT31;56185;48.526;9.044;2022-07-06T05:07:32;15.72;70.59
69084;SHT31;56185;48.526;9.044;2022-07-06T05:09:57;15.54;71.04
69084;SHT31;56185;48.526;9.044;2022-07-06T05:12:22;15.62;70.88
69084;SHT31;56185;48.526;9.044;2022-07-06T05:14:48;15.79;70.94
69084;SHT31;56185;48.526;9.044;2022-07-06T05:17:13;16.01;70.56
69084;SHT31;56185;48.526;9.044;2022-07-06T05:19:38;15.91;70.40
69084;SHT31;56185;48.526;9.044;2022-07-06T05:22:03;15.89;70.57
69084;SHT31;56185;48.526;9.044;2022-07-06T05:24:29;15.95;71.02
69084;SHT31;56185;48.526;9.044;2022-07-06T05:26:54;16.02;70.24
69084;SHT31;56185;48.526;9.044;2022-07-06T05:29:19;15.96;71.42
69084;SHT31;56185;48.526;9.044;2022-07-06T05:31:45;15.88;70.92
69084;SHT31;56185;48.526;9.044;2022-07-06T05:34:10;16.01;71.15
69084;SHT31;56185;48.526;9.044;2022-07-06T05:36:35;16.01;70.97
69084;SHT31;56185;48.526;9.044;2022-07-06T05:39:01;16.10;69.62
69084;SHT31;56185;48.526;9.044;2022-07-06T05:41:26;16.14;68.86
69084;SHT31;56185;48.526;9.044;2022-07-06T05:43:51;16.14;69.13
69084;SHT31;56185;48.526;9.044;2022-07-06T05:46:16;16.33;69.18
69084;SHT31;56185;48.526;9.044;2022-07-06T05:48:42;16.39;67.70
69084;SHT31;56185;48.526;9.044;2022-07-06T05:51:07;16.32;67.22
69084;SHT31;56185;48.526;9.044;2022-07-06T05:53:32;16.44;67.98
69084;SHT31;56185;48.526;9.044;2022-07-06T05:55:58;16.39;67.81
69084;SHT31;56185;48.526;9.044;2022-07-06T05:58:23;16.44;67.81
69084;SHT31;56185;48.526;9.044;2022-07-06T06:00:48;16.51;67.18
69084;SHT31;56185;48.526;9.044;2022-07-06T06:03:13;16.60;67.12
69084;SHT31;56185;48.526;9.044;2022-07-06T06:05:39;16.56;67.63
69084;SHT31;56185;48.526;9.044;2022-07-06T06:08:04;16.64;66.62
69084;SHT31;56185;48.526;9.044;2022-07-06T06:10:30;16.70;66.90
69084;SHT31;56185;48.526;9.044;2022-07-06T06:12:55;16.81;67.65
69084;SHT31;56185;48.526;9.044;2022-07-06T06:15:20;16.94;66.90
69084;SHT31;56185;48.526;9.044;2022-07-06T06:17:46;16.89;67.19
69084;SHT31;56185;48.526;9.044;2022-07-06T06:20:13;16.89;66.88
69084;SHT31;56185;48.526;9.044;2022-07-06T06:22:48;17.07;66.97
69084;SHT31;56185;48.526;9.044;2022-07-06T06:25:19;17.04;66.88
69084;SHT31;56185;48.526;9.044;2022-07-06T06:27:44;17.05;65.87
69084;SHT31;56185;48.526;9.044;2022-07-06T06:30:10;17.14;65.40
69084;SHT31;56185;48.526;9.044;2022-07-06T06:32:35;17.16;65.66
69084;SHT31;56185;48.526;9.044;2022-07-06T06:35:01;17.18;65.72
69084;SHT31;56185;48.526;9.044;2022-07-06T06:37:27;17.25;66.99
69084;SHT31;56185;48.526;9.044;2022-07-06T06:39:52;17.38;65.66
69084;SHT31;56185;48.526;9.044;2022-07-06T06:42:17;17.45;66.27
69084;SHT31;56185;48.526;9.044;2022-07-06T06:44:42;17.46;66.35
69084;SHT31;56185;48.526;9.044;2022-07-06T06:47:08;17.54;66.23
69084;SHT31;56185;48.526;9.044;2022-07-06T06:49:33;17.54;66.32
69084;SHT31;56185;48.526;9.044;2022-07-06T06:51:58;17.49;66.36
69084;SHT31;56185;48.526;9.044;2022-07-06T06:54:24;17.66;65.57
69084;SHT31;56185;48.526;9.044;2022-07-06T06:56:49;17.76;64.81
69084;SHT31;56185;48.526;9.044;2022-07-06T06:59:14;17.77;63.98
69084;SHT31;56185;48.526;9.044;2022-07-06T07:01:40;17.84;63.55
69084;SHT31;56185;48.526;9.044;2022-07-06T07:04:05;17.84;64.86
69084;SHT31;56185;48.526;9.044;2022-07-06T07:06:30;17.89;64.39
69084;SHT31;56185;48.526;9.044;2022-07-06T07:08:55;18.00;63.66
69084;SHT31;56185;48.526;9.044;2022-07-06T07:11:21;18.01;64.49
69084;SHT31;56185;48.526;9.044;2022-07-06T07:13:46;18.15;64.16
69084;SHT31;56185;48.526;9.044;2022-07-06T07:16:11;18.24;62.19
69084;SHT31;56185;48.526;9.044;2022-07-06T07:18:37;18.34;62.96
69084;SHT31;56185;48.526;9.044;2022-07-06T07:21:02;18.39;62.35
69084;SHT31;56185;48.526;9.044;2022-07-06T07:23:28;18.37;62.61
69084;SHT31;56185;48.526;9.044;2022-07-06T07:25:53;18.39;61.83
69084;SHT31;56185;48.526;9.044;2022-07-06T07:28:18;18.45;61.98
69084;SHT31;56185;48.526;9.044;2022-07-06T07:30:43;18.60;61.91
69084;SHT31;56185;48.526;9.044;2022-07-06T07:33:09;18.58;61.93
69084;SHT31;56185;48.526;9.044;2022-07-06T07:35:34;18.66;63.96
69084;SHT31;56185;48.526;9.044;2022-07-06T07:38:00;18.75;62.10
69084;SHT31;56185;48.526;9.044;2022-07-06T07:40:25;18.79;60.82
69084;SHT31;56185;48.526;9.044;2022-07-06T07:42:50;19.02;61.61
69084;SHT31;56185;48.526;9.044;2022-07-06T07:45:16;19.11;61.41
69084;SHT31;56185;48.526;9.044;2022-07-06T07:47:41;19.11;61.54
69084;SHT31;56185;48.526;9.044;2022-07-06T07:50:07;19.26;59.38
69084;SHT31;56185;48.526;9.044;2022-07-06T07:52:32;19.27;58.78
69084;SHT31;56185;48.526;9.044;2022-07-06T07:54:57;19.34;59.42
69084;SHT31;56185;48.526;9.044;2022-07-06T07:57:23;19.47;57.71
69084;SHT31;56185;48.526;9.044;2022-07-06T07:59:48;19.35;57.56
69084;SHT31;56185;48.526;9.044;2022-07-06T08:02:13;19.43;58.44
69084;SHT31;56185;48.526;9.044;2022-07-06T08:04:38;19.41;57.67
69084;SHT31;56185;48.526;9.044;2022-07-06T08:07:04;19.58;57.89
69084;SHT31;56185;48.526;9.044;2022-07-06T08:09:29;19.71;56.74
69084;SHT31;56185;48.526;9.044;2022-07-06T08:11:54;19.79;57.57
69084;SHT31;56185;48.526;9.044;2022-07-06T08:14:20;19.85;58.35
69084;SHT31;56185;48.526;9.044;2022-07-06T08:16:45;19.96;60.30
69084;SHT31;56185;48.526;9.044;2022-07-06T08:19:10;20.00;58.63
69084;SHT31;56185;48.526;9.044;2022-07-06T08:21:36;20.10;57.68
69084;SHT31;56185;48.526;9.044;2022-07-06T08:24:01;20.17;57.02
69084;SHT31;56185;48.526;9.044;2022-07-06T08:26:26;20.23;56.33
69084;SHT31;56185;48.526;9.044;2022-07-06T08:28:52;20.32;56.17
69084;SHT31;56185;48.526;9.044;2022-07-06T08:31:17;20.40;54.79
69084;SHT31;56185;48.526;9.044;2022-07-06T08:33:43;20.44;55.15
69084;SHT31;56185;48.526;9.044;2022-07-06T08:36:08;20.57;55.59
69084;SHT31;56185;48.526;9.044;2022-07-06T08:38:33;20.67;54.99
69084;SHT31;56185;48.526;9.044;2022-07-06T08:40:59;20.71;55.70
69084;SHT31;56185;48.526;9.044;2022-07-06T08:43:25;20.92;56.19
69084;SHT31;56185;48.526;9.044;2022-07-06T08:45:53;21.04;52.26
69084;SHT31;56185;48.526;9.044;2022-07-06T08:48:19;21.02;52.41
69084;SHT31;56185;48.526;9.044;2022-07-06T08:50:47;21.11;51.13
69084;SHT31;56185;48.526;9.044;2022-07-06T08:53:12;21.18;53.55
69084;SHT31;56185;48.526;9.044;2022-07-06T08:55:38;21.18;51.36
69084;SHT31;56185;48.526;9.044;2022-07-06T08:58:03;21.18;53.07
69084;SHT31;56185;48.526;9.044;2022-07-06T09:00:28;21.24;53.05
69084;SHT31;56185;48.526;9.044;2022-07-06T09:02:54;21.01;52.63
69084;SHT31;56185;48.526;9.044;2022-07-06T09:05:21;21.33;53.85
69084;SHT31;56185;48.526;9.044;2022-07-06T09:07:51;21.45;52.90
69084;SHT31;56185;48.526;9.044;2022-07-06T09:10:17;21.52;52.05
69084;SHT31;56185;48.526;9.044;2022-07-06T09:12:43;21.66;51.96
69084;SHT31;56185;48.526;9.044;2022-07-06T09:15:08;21.67;51.05
69084;SHT31;56185;48.526;9.044;2022-07-06T09:17:38;21.74;52.18
69084;SHT31;56185;48.526;9.044;2022-07-06T09:20:07;21.90;51.52
69084;SHT31;56185;48.526;9.044;2022-07-06T09:22:32;21.98;49.85
69084;SHT31;56185;48.526;9.044;2022-07-06T09:25:10;22.07;51.52
69084;SHT31;56185;48.526;9.044;2022-07-06T09:27:38;21.98;51.23
69084;SHT31;56185;48.526;9.044;2022-07-06T09:30:04;22.08;50.42
69084;SHT31;56185;48.526;9.044;2022-07-06T09:32:30;22.08;50.96
69084;SHT31;56185;48.526;9.044;2022-07-06T09:34:56;22.27;51.87
69084;SHT31;56185;48.526;9.044;2022-07-06T09:37:21;22.44;50.72
69084;SHT31;56185;48.526;9.044;2022-07-06T09:39:47;22.56;49.09
69084;SHT31;56185;48.526;9.044;2022-07-06T09:42:12;22.73;50.99
69084;SHT31;56185;48.526;9.044;2022-07-06T09:44:39;22.83;48.77
69084;SHT31;56185;48.526;9.044;2022-07-06T09:47:09;22.72;48.99
69084;SHT31;56185;48.526;9.044;2022-07-06T09:49:36;22.81;49.30
69084;SHT31;56185;48.526;9.044;2022-07-06T09:52:08;22.79;50.56
69084;SHT31;56185;48.526;9.044;2022-07-06T09:54:34;22.45;50.22
69084;SHT31;56185;48.526;9.044;2022-07-06T09:57:00;22.58;49.76
69084;SHT31;56185;48.526;9.044;2022-07-06T09:59:27;22.52;49.57
69084;SHT31;56185;48.526;9.044;2022-07-06T10:01:55;22.32;49.32
69084;SHT31;56185;48.526;9.044;2022-07-06T10:04:22;22.38;49.40
69084;SHT31;56185;48.526;9.044;2022-07-06T10:06:48;22.32;49.47
69084;SHT31;56185;48.526;9.044;2022-07-06T10:09:14;22.32;48.30
69084;SHT31;56185;48.526;9.044;2022-07-06T10:11:47;22.32;50.13
69084;SHT31;56185;48.526;9.044;2022-07-06T10:14:17;22.44;48.49
69084;SHT31;56185;48.526;9.044;2022-07-06T10:16:43;22.61;46.36
69084;SHT31;56185;48.526;9.044;2022-07-06T10:19:09;22.72;49.17
69084;SHT31;56185;48.526;9.044;2022-07-06T10:21:36;23.00;48.04
69084;SHT31;56185;48.526;9.044;2022-07-06T10:24:02;23.04;45.98
69084;SHT31;56185;48.526;9.044;2022-07-06T10:26:28;23.34;47.45
69084;SHT31;56185;48.526;9.044;2022-07-06T10:28:54;23.43;47.56
69084;SHT31;56185;48.526;9.044;2022-07-06T10:31:20;23.36;47.61
69084;SHT31;56185;48.526;9.044;2022-07-06T10:33:46;23.30;47.91
69084;SHT31;56185;48.526;9.044;2022-07-06T10:36:12;23.26;47.51
69084;SHT31;56185;48.526;9.044;2022-07-06T10:38:38;23.02;47.44
69084;SHT31;56185;48.526;9.044;2022-07-06T10:41:08;23.03;47.71
69084;SHT31;56185;48.526;9.044;2022-07-06T10:43:35;23.10;47.10
69084;SHT31;56185;48.526;9.044;2022-07-06T10:46:08;23.13;47.32
69084;SHT31;56185;48.526;9.044;2022-07-06T10:48:36;23.39;45.78
69084;SHT31;56185;48.526;9.044;2022-07-06T10:51:01;23.44;45.27
69084;SHT31;56185;48.526;9.044;2022-07-06T10:53:29;23.36;45.89
69084;SHT31;56185;48.526;9.044;2022-07-06T10:55:56;23.75;47.89
69084;SHT31;56185;48.526;9.044;2022-07-06T11:01:00;24.13;43.39
69084;SHT31;56185;48.526;9.044;2022-07-06T11:06:02;24.16;45.64
69084;SHT31;56185;48.526;9.044;2022-07-06T11:13:47;24.16;45.07
69084;SHT31;56185;48.526;9.044;2022-07-06T11:16:14;23.89;44.12
69084;SHT31;56185;48.526;9.044;2022-07-06T11:18:41;23.70;46.03
69084;SHT31;56185;48.526;9.044;2022-07-06T11:23:42;23.67;46.28
69084;SHT31;56185;48.526;9.044;2022-07-06T11:26:09;23.43;46.54
69084;SHT31;56185;48.526;9.044;2022-07-06T11:28:36;23.41;46.28
69084;SHT31;56185;48.526;9.044;2022-07-06T11:31:02;23.61;47.10
69084;SHT31;56185;48.526;9.044;2022-07-06T11:33:31;23.88;46.78
69084;SHT31;56185;48.526;9.044;2022-07-06T11:36:20;24.29;46.16
69084;SHT31;56185;48.526;9.044;2022-07-06T11:38:47;24.41;46.29
69084;SHT31;56185;48.526;9.044;2022-07-06T11:41:14;24.66;43.63
69084;SHT31;56185;48.526;9.044;2022-07-06T11:43:44;24.91;44.57
69084;SHT31;56185;48.526;9.044;2022-07-06T11:48:50;24.99;43.79
69084;SHT31;56185;48.526;9.044;2022-07-06T11:51:15;24.92;44.80
69084;SHT31;56185;48.526;9.044;2022-07-06T11:53:52;24.83;45.83
69084;SHT31;56185;48.526;9.044;2022-07-06T11:56:25;24.74;44.02
69084;SHT31;56185;48.526;9.044;2022-07-06T11:58:52;24.59;44.64
69084;SHT31;56185;48.526;9.044;2022-07-06T12:01:21;24.52;45.98
69084;SHT31;56185;48.526;9.044;2022-07-06T12:03:46;24.30;46.62
69084;SHT31;56185;48.526;9.044;2022-07-06T12:06:15;24.33;46.34
69084;SHT31;56185;48.526;9.044;2022-07-06T12:08:46;24.52;46.96
69084;SHT31;56185;48.526;9.044;2022-07-06T12:11:20;24.63;45.35
69084;SHT31;56185;48.526;9.044;2022-07-06T12:13:45;24.44;45.94
69084;SHT31;56185;48.526;9.044;2022-07-06T12:16:12;24.52;45.05
69084;SHT31;56185;48.526;9.044;2022-07-06T12:18:41;24.70;44.48
69084;SHT31;56185;48.526;9.044;2022-07-06T12:21:19;24.94;44.60
69084;SHT31;56185;48.526;9.044;2022-07-06T12:23:48;25.05;44.17
69084;SHT31;56185;48.526;9.044;2022-07-06T12:26:14;25.29;43.97
69084;SHT31;56185;48.526;9.044;2022-07-06T12:28:41;25.27;44.18
69084;SHT31;56185;48.526;9.044;2022-07-06T12:31:06;25.24;43.64
69084;SHT31;56185;48.526;9.044;2022-07-06T12:33:31;25.50;44.20
69084;SHT31;56185;48.526;9.044;2022-07-06T12:36:08;25.70;45.23
69084;SHT31;56185;48.526;9.044;2022-07-06T12:38:33;25.92;45.15
69084;SHT31;56185;48.526;9.044;2022-07-06T12:40:59;25.85;44.44
69084;SHT31;56185;48.526;9.044;2022-07-06T12:43:39;25.70;45.16
69084;SHT31;56185;48.526;9.044;2022-07-06T12:46:44;25.72;44.21
69084;SHT31;56185;48.526;9.044;2022-07-06T12:49:18;25.65;45.16
69084;SHT31;56185;48.526;9.044;2022-07-06T12:54:19;25.36;45.32
69084;SHT31;56185;48.526;9.044;2022-07-06T12:57:03;25.19;44.84
69084;SHT31;56185;48.526;9.044;2022-07-06T12:59:30;25.15;46.24
69084;SHT31;56185;48.526;9.044;2022-07-06T13:01:57;25.05;45.67
69084;SHT31;56185;48.526;9.044;2022-07-06T13:04:27;24.80;45.54
69084;SHT31;56185;48.526;9.044;2022-07-06T13:06:53;24.90;45.47
69084;SHT31;56185;48.526;9.044;2022-07-06T13:09:19;25.14;45.38
69084;SHT31;56185;48.526;9.044;2022-07-06T13:11:45;25.03;44.81
69084;SHT31;56185;48.526;9.044;2022-07-06T13:14:11;24.94;46.73
69084;SHT31;56185;48.526;9.044;2022-07-06T13:16:36;24.94;45.64
69084;SHT31;56185;48.526;9.044;2022-07-06T13:19:03;25.11;46.20
69084;SHT31;56185;48.526;9.044;2022-07-06T13:21:29;25.34;45.81
69084;SHT31;56185;48.526;9.044;2022-07-06T13:23:54;25.46;44.76
69084;SHT31;56185;48.526;9.044;2022-07-06T13:26:19;25.53;45.44
69084;SHT31;56185;48.526;9.044;2022-07-06T13:28:45;25.69;44.63
69084;SHT31;56185;48.526;9.044;2022-07-06T13:31:10;25.63;44.23
69084;SHT31;56185;48.526;9.044;2022-07-06T13:33:35;25.97;45.55
69084;SHT31;56185;48.526;9.044;2022-07-06T13:36:01;26.00;44.53
69084;SHT31;56185;48.526;9.044;2022-07-06T13:38:26;25.85;43.40
69084;SHT31;56185;48.526;9.044;2022-07-06T13:40:52;26.01;43.25
69084;SHT31;56185;48.526;9.044;2022-07-06T13:43:18;26.16;42.91
69084;SHT31;56185;48.526;9.044;2022-07-06T13:45:43;26.16;43.28
69084;SHT31;56185;48.526;9.044;2022-07-06T13:48:08;26.25;42.81
69084;SHT31;56185;48.526;9.044;2022-07-06T13:50:34;26.23;43.00
69084;SHT31;56185;48.526;9.044;2022-07-06T13:52:59;26.40;42.74
69084;SHT31;56185;48.526;9.044;2022-07-06T13:55:25;26.44;44.00
69084;SHT31;56185;48.526;9.044;2022-07-06T13:57:50;26.45;42.51
69084;SHT31;56185;48.526;9.044;2022-07-06T14:00:16;26.40;43.35
69084;SHT31;56185;48.526;9.044;2022-07-06T14:02:41;26.48;42.75
69084;SHT31;56185;48.526;9.044;2022-07-06T14:05:07;26.52;42.96
69084;SHT31;56185;48.526;9.044;2022-07-06T14:07:32;26.58;42.46
69084;SHT31;56185;48.526;9.044;2022-07-06T14:09:57;26.45;42.52
69084;SHT31;56185;48.526;9.044;2022-07-06T14:12:22;26.67;42.54
69084;SHT31;56185;48.526;9.044;2022-07-06T14:14:48;26.75;41.88
69084;SHT31;56185;48.526;9.044;2022-07-06T14:17:13;26.71;42.13
69084;SHT31;56185;48.526;9.044;2022-07-06T14:19:38;26.51;41.04
69084;SHT31;56185;48.526;9.044;2022-07-06T14:22:03;26.71;41.97
69084;SHT31;56185;48.526;9.044;2022-07-06T14:24:29;26.72;42.07
69084;SHT31;56185;48.526;9.044;2022-07-06T14:26:54;26.61;39.72
69084;SHT31;56185;48.526;9.044;2022-07-06T14:29:19;26.52;40.08
69084;SHT31;56185;48.526;9.044;2022-07-06T14:31:44;26.68;41.85
69084;SHT31;56185;48.526;9.044;2022-07-06T14:34:10;26.64;41.43
69084;SHT31;56185;48.526;9.044;2022-07-06T14:36:35;26.38;42.44
69084;SHT31;56185;48.526;9.044;2022-07-06T14:39:01;25.97;42.13
69084;SHT31;56185;48.526;9.044;2022-07-06T14:41:26;25.61;42.97
69084;SHT31;56185;48.526;9.044;2022-07-06T14:43:51;25.58;42.18
69084;SHT31;56185;48.526;9.044;2022-07-06T14:46:16;25.48;42.09
69084;SHT31;56185;48.526;9.044;2022-07-06T14:48:42;25.73;43.55
69084;SHT31;56185;48.526;9.044;2022-07-06T14:51:07;25.80;42.84
69084;SHT31;56185;48.526;9.044;2022-07-06T14:53:32;25.90;42.85
69084;SHT31;56185;48.526;9.044;2022-07-06T14:55:58;26.12;42.92
69084;SHT31;56185;48.526;9.044;2022-07-06T14:58:23;26.33;42.19
69084;SHT31;56185;48.526;9.044;2022-07-06T15:00:48;26.44;40.99
69084;SHT31;56185;48.526;9.044;2022-07-06T15:03:13;26.45;41.94
69084;SHT31;56185;48.526;9.044;2022-07-06T15:05:39;26.34;41.01
69084;SHT31;56185;48.526;9.044;2022-07-06T15:08:05;26.47;41.41
69084;SHT31;56185;48.526;9.044;2022-07-06T15:10:31;26.58;41.59
69084;SHT31;56185;48.526;9.044;2022-07-06T15:12:56;26.65;39.81
69084;SHT31;56185;48.526;9.044;2022-07-06T15:15:21;26.58;40.94
69084;SHT31;56185;48.526;9.044;2022-07-06T15:17:46;26.65;40.80
69084;SHT31;56185;48.526;9.044;2022-07-06T15:20:12;26.48;40.70
69084;SHT31;56185;48.526;9.044;2022-07-06T15:22:37;26.44;40.59
69084;SHT31;56185;48.526;9.044;2022-07-06T15:25:02;26.59;41.67
69084;SHT31;56185;48.526;9.044;2022-07-06T15:27:28;26.49;39.96
69084;SHT31;56185;48.526;9.044;2022-07-06T15:29:53;26.56;40.70
69084;SHT31;56185;48.526;9.044;2022-07-06T15:32:18;26.54;39.67
69084;SHT31;56185;48.526;9.044;2022-07-06T15:34:44;26.75;40.89
69084;SHT31;56185;48.526;9.044;2022-07-06T15:37:09;26.72;39.06
69084;SHT31;56185;48.526;9.044;2022-07-06T15:39:34;26.76;40.30
69084;SHT31;56185;48.526;9.044;2022-07-06T15:41:59;26.78;40.35
69084;SHT31;56185;48.526;9.044;2022-07-06T15:44:25;26.82;38.82